createdAt,value
2022-11-05T00:02:01.059Z,9.63
2022-11-05T00:04:47.303Z,9.59
2022-11-05T00:07:34.441Z,9.66
2022-11-05T00:10:04.483Z,9.62
2022-11-05T00:13:07.797Z,9.59
2022-11-05T00:15:54.112Z,9.43
2022-11-05T00:18:21.531Z,9.56
2022-11-05T00:20:49.240Z,9.48
2022-11-05T00:23:35.254Z,9.36
2022-11-05T00:26:07.517Z,9.45
2022-11-05T00:28:35.947Z,9.48
2022-11-05T00:31:09.851Z,9.51
2022-11-05T00:33:38.251Z,9.34
2022-11-05T00:36:06.423Z,9.31
2022-11-05T00:38:34.556Z,9.43
2022-11-05T00:41:02.103Z,9.43
2022-11-05T00:43:48.231Z,9.49
2022-11-05T00:46:15.923Z,9.52
2022-11-05T00:49:01.885Z,9.41
2022-11-05T00:51:29.558Z,9.34
2022-11-05T00:53:56.996Z,9.39
2022-11-05T00:56:24.581Z,9.39
2022-11-05T00:58:51.989Z,9.48
2022-11-05T01:01:19.566Z,9.49
2022-11-05T01:03:51.528Z,9.45
2022-11-05T01:06:19.769Z,9.46
2022-11-05T01:08:47.287Z,9.41
2022-11-05T01:11:34.471Z,9.49
2022-11-05T01:14:13.119Z,9.39
2022-11-05T01:16:40.971Z,9.35
2022-11-05T01:19:09.237Z,9.41
2022-11-05T01:21:36.929Z,9.42
2022-11-05T01:24:04.641Z,9.43
2022-11-05T01:26:32.126Z,9.38
2022-11-05T01:29:02.470Z,9.38
2022-11-05T01:31:30.200Z,9.39
2022-11-05T01:33:57.582Z,9.38
2022-11-05T01:36:25.137Z,9.43
2022-11-05T01:38:52.635Z,9.38
2022-11-05T01:41:20.036Z,9.21
2022-11-05T01:43:55.283Z,9.14
2022-11-05T01:46:36.841Z,9.25
2022-11-05T01:49:22.416Z,9.32
2022-11-05T01:51:51.480Z,9.41
2022-11-05T01:54:19.901Z,9.21
2022-11-05T01:56:50.582Z,9.22
2022-11-05T01:59:26.381Z,9.28
2022-11-05T02:01:54.145Z,9.41
2022-11-05T02:04:33.639Z,9.27
2022-11-05T02:07:01.230Z,9.15
2022-11-05T02:09:35.213Z,9.17
2022-11-05T02:12:02.988Z,9.12
2022-11-05T02:14:30.415Z,9.18
2022-11-05T02:17:16.930Z,9.20
2022-11-05T02:19:53.583Z,9.14
2022-11-05T02:22:39.561Z,9.18
2022-11-05T02:25:30.009Z,9.28
2022-11-05T02:28:18.284Z,9.12
2022-11-05T02:30:47.874Z,9.14
2022-11-05T02:33:24.260Z,9.18
2022-11-05T02:35:59.262Z,9.27
2022-11-05T02:38:44.914Z,9.12
2022-11-05T02:41:12.425Z,9.14
2022-11-05T02:44:17.455Z,9.11
2022-11-05T02:47:00.660Z,9.12
2022-11-05T02:49:46.764Z,9.18
2022-11-05T02:52:33.534Z,9.22
2022-11-05T02:55:27.606Z,9.30
2022-11-05T02:57:55.310Z,9.32
2022-11-05T03:00:43.430Z,9.30
2022-11-05T03:03:18.367Z,9.30
2022-11-05T03:06:13.829Z,9.30
2022-11-05T03:08:59.875Z,9.30
2022-11-05T03:11:29.116Z,9.39
2022-11-05T03:14:20.342Z,9.41
2022-11-05T03:17:18.420Z,9.41
2022-11-05T03:20:11.424Z,9.42
2022-11-05T03:22:41.812Z,9.48
2022-11-05T03:25:12.906Z,9.46
2022-11-05T03:27:42.368Z,9.43
2022-11-05T03:30:10.743Z,9.31
2022-11-05T03:32:41.049Z,9.32
2022-11-05T03:35:12.875Z,9.42
2022-11-05T03:37:41.574Z,9.41
2022-11-05T03:40:09.721Z,9.34
2022-11-05T03:42:38.072Z,9.36
2022-11-05T03:45:11.666Z,9.45
2022-11-05T03:47:40.401Z,9.48
2022-11-05T03:50:13.302Z,9.55
2022-11-05T03:52:44.556Z,9.52
2022-11-05T03:55:12.059Z,9.56
2022-11-05T03:57:41.008Z,9.45
2022-11-05T04:00:09.588Z,9.48
2022-11-05T04:02:39.324Z,9.59
2022-11-05T04:05:07.058Z,9.58
2022-11-05T04:07:52.952Z,9.68
2022-11-05T04:10:39.106Z,9.63
2022-11-05T04:13:24.727Z,9.62
2022-11-05T04:16:14.706Z,9.66
2022-11-05T04:18:42.552Z,9.82
2022-11-05T04:21:28.465Z,9.80
2022-11-05T04:24:08.562Z,9.65
2022-11-05T04:26:43.894Z,9.70
2022-11-05T04:29:29.924Z,9.85
2022-11-05T04:31:57.850Z,9.83
2022-11-05T04:34:25.455Z,9.87
2022-11-05T04:36:53.469Z,9.83
2022-11-05T04:39:21.123Z,9.83
2022-11-05T04:41:48.979Z,9.85
2022-11-05T04:44:16.783Z,9.90
2022-11-05T04:46:44.356Z,9.97
2022-11-05T04:49:11.993Z,9.90
2022-11-05T04:51:39.552Z,9.96
2022-11-05T04:54:07.275Z,10.11
2022-11-05T04:56:34.693Z,10.20
2022-11-05T04:59:02.011Z,10.10
2022-11-05T05:01:29.720Z,10.06
2022-11-05T05:03:57.283Z,10.06
2022-11-05T05:06:25.031Z,10.00
2022-11-05T05:08:52.538Z,10.03
2022-11-05T05:11:21.038Z,9.96
2022-11-05T05:13:48.670Z,9.91
2022-11-05T05:16:23.964Z,9.86
2022-11-05T05:18:51.601Z,9.78
2022-11-05T05:21:38.528Z,9.78
2022-11-05T05:24:09.139Z,9.73
2022-11-05T05:26:41.768Z,9.76
2022-11-05T05:29:09.413Z,9.75
2022-11-05T05:31:37.180Z,9.63
2022-11-05T05:34:05.596Z,9.53
2022-11-05T05:36:33.148Z,9.78
2022-11-05T05:39:00.716Z,9.86
2022-11-05T05:41:28.095Z,9.82
2022-11-05T05:43:55.838Z,9.90
2022-11-05T05:46:23.330Z,9.89
2022-11-05T05:48:51.571Z,9.78
2022-11-05T05:51:19.196Z,9.86
2022-11-05T05:53:46.763Z,9.86
2022-11-05T05:56:19.506Z,9.90
2022-11-05T05:58:47.513Z,9.93
2022-11-05T06:01:19.207Z,9.89
2022-11-05T06:03:48.140Z,9.97
2022-11-05T06:06:19.833Z,10.04
2022-11-05T06:08:47.915Z,10.07
2022-11-05T06:11:15.423Z,10.04
2022-11-05T06:13:42.887Z,10.14
2022-11-05T06:16:10.326Z,10.16
2022-11-05T06:18:38.201Z,10.18
2022-11-05T06:21:07.361Z,10.20
2022-11-05T06:23:35.604Z,10.30
2022-11-05T06:26:07.739Z,10.24
2022-11-05T06:28:35.263Z,10.27
2022-11-05T06:31:02.751Z,10.33
2022-11-05T06:33:30.355Z,10.27
2022-11-05T06:36:01.800Z,10.24
2022-11-05T06:38:31.059Z,10.38
2022-11-05T06:40:59.600Z,10.30
2022-11-05T06:43:30.480Z,10.37
2022-11-05T06:45:58.436Z,10.41
2022-11-05T06:48:25.824Z,10.45
2022-11-05T06:50:53.659Z,10.57
2022-11-05T06:53:21.101Z,10.55
2022-11-05T06:55:49.071Z,10.67
2022-11-05T06:58:16.427Z,10.71
2022-11-05T07:00:44.034Z,10.68
2022-11-05T07:03:12.076Z,10.65
2022-11-05T07:05:45.725Z,10.78
2022-11-05T07:08:13.637Z,10.80
2022-11-05T07:10:41.423Z,10.86
2022-11-05T07:13:09.305Z,10.92
2022-11-05T07:15:37.217Z,10.96
2022-11-05T07:18:05.440Z,11.06
2022-11-05T07:20:34.525Z,11.19
2022-11-05T07:23:02.867Z,11.15
2022-11-05T07:25:31.229Z,11.30
2022-11-05T07:27:58.946Z,11.36
2022-11-05T07:30:27.021Z,11.40
2022-11-05T07:32:54.906Z,11.41
2022-11-05T07:35:22.613Z,11.51
2022-11-05T07:37:50.942Z,11.60
2022-11-05T07:40:19.460Z,11.68
2022-11-05T07:42:55.026Z,11.64
2022-11-05T07:45:22.845Z,11.82
2022-11-05T07:47:58.052Z,11.68
2022-11-05T07:50:27.595Z,11.71
2022-11-05T07:53:00.452Z,11.75
2022-11-05T07:55:28.384Z,11.61
2022-11-05T07:57:56.051Z,11.68
2022-11-05T08:00:24.153Z,11.67
2022-11-05T08:03:05.601Z,11.70
2022-11-05T08:05:39.373Z,11.73
2022-11-05T08:08:07.943Z,11.61
2022-11-05T08:10:35.862Z,11.71
2022-11-05T08:13:03.326Z,11.71
2022-11-05T08:15:30.975Z,11.85
2022-11-05T08:18:05.131Z,11.87
2022-11-05T08:20:32.922Z,12.08
2022-11-05T08:23:00.369Z,12.04
2022-11-05T08:25:27.872Z,12.30
2022-11-05T08:28:05.598Z,12.14
2022-11-05T08:30:33.215Z,12.39
2022-11-05T08:33:05.179Z,12.32
2022-11-05T08:35:37.574Z,12.35
2022-11-05T08:38:06.302Z,12.45
2022-11-05T08:40:36.482Z,12.52
2022-11-05T08:43:04.944Z,12.67
2022-11-05T08:45:32.825Z,12.60
2022-11-05T08:48:08.335Z,12.61
2022-11-05T08:50:36.471Z,12.68
2022-11-05T08:53:05.301Z,12.73
2022-11-05T08:55:33.448Z,12.61
2022-11-05T08:58:02.438Z,12.79
2022-11-05T09:00:31.863Z,12.88
2022-11-05T09:03:01.029Z,12.91
2022-11-05T09:05:29.160Z,13.19
2022-11-05T09:08:00.983Z,13.38
2022-11-05T09:10:29.002Z,13.59
2022-11-05T09:12:56.446Z,13.62
2022-11-05T09:15:24.559Z,13.72
2022-11-05T09:17:52.010Z,13.61
2022-11-05T09:20:19.886Z,13.59
2022-11-05T09:22:47.577Z,13.70
2022-11-05T09:25:16.182Z,13.97
2022-11-05T09:27:43.946Z,13.93
2022-11-05T09:30:12.634Z,13.59
2022-11-05T09:32:40.032Z,13.39
2022-11-05T09:35:08.245Z,13.36
2022-11-05T09:37:36.664Z,13.39
2022-11-05T09:40:04.533Z,13.35
2022-11-05T09:42:38.054Z,13.32
2022-11-05T09:45:10.675Z,13.29
2022-11-05T09:47:43.284Z,13.28
2022-11-05T09:50:20.687Z,13.36
2022-11-05T09:52:48.341Z,13.35
2022-11-05T09:55:43.213Z,13.45
2022-11-05T09:58:26.010Z,13.39
2022-11-05T10:00:56.481Z,13.39
2022-11-05T10:03:24.325Z,13.36
2022-11-05T10:05:52.122Z,13.38
2022-11-05T10:08:23.486Z,13.42
2022-11-05T10:11:05.853Z,13.46
2022-11-05T10:13:42.294Z,13.39
2022-11-05T10:16:16.006Z,13.43
2022-11-05T10:18:45.042Z,13.41
2022-11-05T10:21:17.118Z,13.32
2022-11-05T10:23:45.433Z,13.49
2022-11-05T10:26:15.157Z,13.26
2022-11-05T10:28:42.622Z,13.26
2022-11-05T10:31:12.783Z,13.25
2022-11-05T10:33:45.659Z,13.28
2022-11-05T10:36:21.404Z,13.31
2022-11-05T10:38:49.009Z,13.24
2022-11-05T10:41:28.575Z,13.39
2022-11-05T10:44:11.522Z,13.31
2022-11-05T10:46:54.560Z,13.16
2022-11-05T10:49:44.047Z,13.00
2022-11-05T10:52:26.029Z,12.93
2022-11-05T10:54:55.329Z,12.98
2022-11-05T10:57:36.303Z,12.93
2022-11-05T11:00:16.434Z,12.91
2022-11-05T11:02:52.130Z,12.70
2022-11-05T11:05:31.315Z,12.68
2022-11-05T11:08:09.299Z,12.66
2022-11-05T11:10:41.256Z,12.60
2022-11-05T11:13:23.461Z,12.53
2022-11-05T11:15:51.428Z,12.61
2022-11-05T11:18:40.323Z,12.60
2022-11-05T11:21:17.338Z,12.61
2022-11-05T11:23:44.915Z,12.52
2022-11-05T11:26:12.216Z,12.47
2022-11-05T11:28:50.459Z,12.50
2022-11-05T11:31:21.709Z,12.49
2022-11-05T11:33:52.161Z,12.54
2022-11-05T11:36:20.501Z,12.52
2022-11-05T11:38:47.968Z,12.53
2022-11-05T11:41:35.326Z,12.47
2022-11-05T11:44:07.112Z,12.45
2022-11-05T11:46:34.958Z,12.42
2022-11-05T11:49:02.512Z,12.46
2022-11-05T11:51:45.682Z,12.37
2022-11-05T11:54:21.564Z,12.43
2022-11-05T11:56:49.051Z,12.36
2022-11-05T11:59:53.784Z,12.43
2022-11-05T12:02:33.511Z,12.46
2022-11-05T12:05:29.323Z,12.50
2022-11-05T12:07:58.398Z,12.49
2022-11-05T12:10:34.178Z,12.37
2022-11-05T12:13:20.814Z,12.35
2022-11-05T12:16:05.563Z,12.33
2022-11-05T12:18:39.179Z,12.40
2022-11-05T12:21:52.598Z,12.42
2022-11-05T12:24:21.245Z,12.32
2022-11-05T12:27:09.886Z,12.33
2022-11-05T12:29:55.555Z,12.39
2022-11-05T12:32:22.992Z,12.29
2022-11-05T12:34:56.390Z,12.32
2022-11-05T12:37:34.232Z,12.37
2022-11-05T12:40:20.436Z,12.42
2022-11-05T12:43:01.141Z,12.35
2022-11-05T12:45:42.275Z,12.35
2022-11-05T12:48:37.253Z,12.28
2022-11-05T12:51:11.379Z,12.35
2022-11-05T12:54:04.713Z,12.37
2022-11-05T12:56:34.466Z,12.37
2022-11-05T12:59:11.564Z,12.25
2022-11-05T13:01:42.667Z,12.22
2022-11-05T13:04:57.113Z,12.25
2022-11-05T13:07:35.691Z,12.26
2022-11-05T13:10:21.226Z,12.24
2022-11-05T13:12:56.136Z,12.30
2022-11-05T13:15:29.378Z,12.33
2022-11-05T13:18:03.498Z,12.33
2022-11-05T13:20:37.046Z,12.35
2022-11-05T13:23:31.527Z,12.32
2022-11-05T13:26:25.368Z,12.25
2022-11-05T13:29:01.950Z,12.18
2022-11-05T13:31:38.008Z,12.14
2022-11-05T13:34:09.812Z,12.25
2022-11-05T13:37:05.885Z,12.16
2022-11-05T13:39:42.371Z,12.15
2022-11-05T13:42:22.136Z,12.12
2022-11-05T13:45:22.043Z,12.04
2022-11-05T13:48:26.839Z,12.04
2022-11-05T13:51:07.550Z,12.19
2022-11-05T13:53:46.020Z,12.11
2022-11-05T13:56:41.372Z,12.12
2022-11-05T13:59:20.817Z,12.12
2022-11-05T14:01:55.313Z,12.16
2022-11-05T14:04:27.373Z,12.16
2022-11-05T14:06:55.086Z,12.09
2022-11-05T14:09:25.911Z,12.11
2022-11-05T14:11:57.245Z,12.05
2022-11-05T14:14:27.078Z,12.04
2022-11-05T14:17:09.971Z,12.04
2022-11-05T14:19:49.967Z,12.05
2022-11-05T14:22:33.157Z,12.02
2022-11-05T14:25:01.704Z,11.99
2022-11-05T14:27:29.635Z,12.05
2022-11-05T14:29:57.465Z,12.01
2022-11-05T14:32:44.879Z,11.99
2022-11-05T14:35:15.567Z,11.94
2022-11-05T14:37:43.080Z,11.95
2022-11-05T14:40:22.989Z,11.99
2022-11-05T14:42:55.162Z,11.94
2022-11-05T14:45:28.886Z,11.94
2022-11-05T14:48:01.548Z,11.95
2022-11-05T14:50:42.333Z,11.88
2022-11-05T14:53:31.598Z,11.87
2022-11-05T14:56:04.701Z,11.79
2022-11-05T14:58:34.107Z,11.77
2022-11-05T15:01:03.604Z,11.84
2022-11-05T15:03:45.811Z,11.75
2022-11-05T15:06:32.360Z,11.73
2022-11-05T15:09:19.844Z,11.75
2022-11-05T15:11:56.673Z,11.70
2022-11-05T15:14:58.950Z,11.73
2022-11-05T15:17:41.093Z,11.65
2022-11-05T15:20:10.863Z,11.56
2022-11-05T15:22:41.310Z,11.68
2022-11-05T15:25:17.868Z,11.57
2022-11-05T15:28:07.141Z,11.57
2022-11-05T15:30:34.780Z,11.56
2022-11-05T15:33:10.389Z,11.50
2022-11-05T15:35:39.606Z,11.46
2022-11-05T15:38:25.107Z,11.47
2022-11-05T15:41:06.176Z,11.40
2022-11-05T15:43:33.720Z,11.41
2022-11-05T15:46:13.767Z,11.46
2022-11-05T15:48:41.592Z,11.48
2022-11-05T15:51:09.260Z,11.46
2022-11-05T15:53:56.559Z,11.38
2022-11-05T15:56:39.950Z,11.43
2022-11-05T15:59:16.365Z,11.29
2022-11-05T16:02:05.842Z,11.31
2022-11-05T16:04:34.319Z,11.31
2022-11-05T16:07:07.867Z,11.33
2022-11-05T16:09:40.376Z,11.30
2022-11-05T16:12:19.904Z,11.34
2022-11-05T16:14:59.441Z,11.29
2022-11-05T16:17:29.541Z,11.24
2022-11-05T16:19:57.376Z,11.23
2022-11-05T16:22:24.806Z,11.24
2022-11-05T16:24:52.459Z,11.29
2022-11-05T16:27:21.391Z,11.33
2022-11-05T16:29:53.771Z,11.36
2022-11-05T16:32:29.867Z,11.38
2022-11-05T16:35:03.869Z,11.38
2022-11-05T16:37:39.891Z,11.47
2022-11-05T16:40:14.977Z,11.44
2022-11-05T16:42:42.599Z,11.48
2022-11-05T16:45:12.180Z,11.43
2022-11-05T16:47:39.691Z,11.50
2022-11-05T16:50:22.919Z,11.51
2022-11-05T16:52:51.089Z,11.56
2022-11-05T16:55:18.681Z,11.54
2022-11-05T16:57:49.394Z,11.54
2022-11-05T17:00:17.833Z,11.50
2022-11-05T17:02:45.594Z,11.53
2022-11-05T17:05:35.052Z,11.46
2022-11-05T17:08:03.681Z,11.48
2022-11-05T17:10:31.001Z,11.44
2022-11-05T17:12:58.787Z,11.44
2022-11-05T17:15:37.041Z,11.56
2022-11-05T17:18:04.960Z,11.53
2022-11-05T17:20:41.656Z,11.47
2022-11-05T17:23:10.715Z,11.38
2022-11-05T17:25:39.714Z,11.36
2022-11-05T17:28:07.215Z,11.41
2022-11-05T17:30:34.910Z,11.44
2022-11-05T17:33:03.337Z,11.37
2022-11-05T17:35:31.062Z,11.40
2022-11-05T17:37:58.628Z,11.40
2022-11-05T17:40:26.137Z,11.38
2022-11-05T17:42:53.758Z,11.34
2022-11-05T17:45:21.145Z,11.34
2022-11-05T17:47:49.006Z,11.31
2022-11-05T17:50:16.595Z,11.26
2022-11-05T17:52:44.119Z,11.12
2022-11-05T17:55:16.997Z,11.12
2022-11-05T17:57:48.574Z,11.07
2022-11-05T18:00:22.788Z,11.06
2022-11-05T18:02:51.864Z,11.06
2022-11-05T18:05:19.413Z,11.07
2022-11-05T18:07:47.386Z,11.02
2022-11-05T18:10:14.933Z,11.02
2022-11-05T18:12:42.828Z,10.91
2022-11-05T18:15:10.409Z,10.89
2022-11-05T18:17:38.395Z,10.89
2022-11-05T18:20:11.649Z,10.93
2022-11-05T18:22:41.963Z,11.02
2022-11-05T18:25:11.084Z,10.98
2022-11-05T18:27:40.351Z,10.96
2022-11-05T18:30:09.049Z,11.02
2022-11-05T18:32:36.828Z,11.02
2022-11-05T18:35:04.581Z,11.03
2022-11-05T18:37:32.181Z,11.15
2022-11-05T18:39:59.698Z,11.09
2022-11-05T18:42:27.204Z,11.13
2022-11-05T18:44:54.771Z,11.13
2022-11-05T18:47:22.408Z,11.22
2022-11-05T18:49:49.828Z,11.23
2022-11-05T18:52:17.418Z,11.24
2022-11-05T18:54:45.074Z,11.24
2022-11-05T18:57:12.605Z,11.13
2022-11-05T18:59:42.278Z,11.06
2022-11-05T19:02:11.185Z,11.00
2022-11-05T19:04:39.008Z,10.95
2022-11-05T19:07:06.870Z,10.89
2022-11-05T19:09:34.766Z,10.93
2022-11-05T19:12:02.608Z,10.80
2022-11-05T19:14:31.799Z,10.73
2022-11-05T19:16:59.558Z,10.72
2022-11-05T19:19:27.185Z,10.69
2022-11-05T19:21:54.747Z,10.67
2022-11-05T19:24:22.050Z,10.68
2022-11-05T19:26:49.606Z,10.61
2022-11-05T19:29:17.018Z,10.62
2022-11-05T19:31:44.748Z,10.61
2022-11-05T19:34:13.564Z,10.59
2022-11-05T19:36:41.585Z,10.58
2022-11-05T19:39:10.095Z,10.54
2022-11-05T19:41:37.704Z,10.57
2022-11-05T19:44:05.206Z,10.57
2022-11-05T19:46:32.949Z,10.55
2022-11-05T19:49:01.208Z,10.64
2022-11-05T19:51:30.240Z,10.61
2022-11-05T19:54:00.049Z,10.58
2022-11-05T19:56:32.261Z,10.52
2022-11-05T19:59:00.107Z,10.52
2022-11-05T20:01:28.499Z,10.54
2022-11-05T20:03:57.089Z,10.48
2022-11-05T20:06:28.863Z,10.42
2022-11-05T20:09:20.538Z,10.47
2022-11-05T20:11:45.474Z,10.52
2022-11-05T20:14:13.084Z,10.47
2022-11-05T20:16:41.554Z,10.45
2022-11-05T20:19:11.381Z,10.41
2022-11-05T20:21:38.945Z,10.42
2022-11-05T20:24:06.909Z,10.36
2022-11-05T20:26:34.518Z,10.33
2022-11-05T20:29:01.956Z,10.27
2022-11-05T20:31:29.498Z,10.31
2022-11-05T20:33:57.266Z,10.34
2022-11-05T20:36:25.358Z,10.25
2022-11-05T20:38:58.296Z,10.25
2022-11-05T20:41:26.280Z,10.28
2022-11-05T20:43:53.939Z,10.27
2022-11-05T20:46:22.095Z,10.21
2022-11-05T20:48:49.605Z,10.22
2022-11-05T20:51:19.106Z,10.20
2022-11-05T20:53:46.748Z,10.18
2022-11-05T20:56:19.101Z,10.18
2022-11-05T20:58:47.518Z,10.14
2022-11-05T21:01:16.858Z,10.21
2022-11-05T21:03:45.042Z,10.14
2022-11-05T21:06:12.776Z,10.16
2022-11-05T21:08:40.405Z,10.17
2022-11-05T21:11:08.173Z,10.20
2022-11-05T21:13:36.047Z,10.16
2022-11-05T21:16:05.251Z,10.17
2022-11-05T21:18:33.541Z,10.18
2022-11-05T21:21:04.235Z,10.14
2022-11-05T21:23:31.732Z,10.11
2022-11-05T21:25:59.113Z,10.10
2022-11-05T21:28:26.901Z,10.07
2022-11-05T21:30:54.683Z,10.10
2022-11-05T21:33:22.097Z,10.07
2022-11-05T21:35:49.618Z,10.03
2022-11-05T21:38:17.394Z,10.00
2022-11-05T21:40:45.201Z,10.01
2022-11-05T21:43:13.232Z,9.96
2022-11-05T21:45:41.882Z,9.96
2022-11-05T21:48:09.790Z,10.03
2022-11-05T21:50:59.887Z,10.00
2022-11-05T21:53:46.222Z,9.94
2022-11-05T21:56:36.490Z,9.96
2022-11-05T21:59:22.836Z,9.97
2022-11-05T22:01:50.640Z,9.97
2022-11-05T22:04:18.121Z,9.89
2022-11-05T22:06:45.708Z,9.90
2022-11-05T22:09:13.274Z,9.91
2022-11-05T22:11:40.822Z,9.93
2022-11-05T22:14:08.443Z,9.93
2022-11-05T22:16:35.995Z,10.01
2022-11-05T22:19:03.675Z,9.96
2022-11-05T22:21:31.148Z,9.87
2022-11-05T22:23:58.448Z,9.87
2022-11-05T22:26:26.044Z,9.86
2022-11-05T22:28:54.822Z,9.83
2022-11-05T22:31:22.633Z,9.87
2022-11-05T22:33:50.233Z,9.83
2022-11-05T22:36:17.705Z,9.79
2022-11-05T22:38:45.165Z,9.79
2022-11-05T22:41:14.618Z,9.73
2022-11-05T22:43:42.734Z,9.69
2022-11-05T22:46:12.876Z,9.69
2022-11-05T22:48:40.707Z,9.69
2022-11-05T22:51:09.668Z,9.76
2022-11-05T22:53:37.359Z,9.75
2022-11-05T22:56:05.691Z,9.68
2022-11-05T22:58:33.328Z,9.69
2022-11-05T23:01:00.839Z,9.66
2022-11-05T23:03:29.271Z,9.69
2022-11-05T23:05:58.452Z,9.75
2022-11-05T23:08:44.554Z,9.75
2022-11-05T23:11:38.846Z,9.66
2022-11-05T23:14:11.169Z,9.72
2022-11-05T23:16:57.250Z,9.70
2022-11-05T23:19:43.166Z,9.69
2022-11-05T23:22:39.981Z,9.70
2022-11-05T23:25:09.282Z,9.75
2022-11-05T23:27:37.670Z,9.76
2022-11-05T23:30:16.460Z,9.70
2022-11-05T23:32:44.165Z,9.75
2022-11-05T23:35:11.702Z,9.69
2022-11-05T23:37:57.633Z,9.72
2022-11-05T23:40:26.710Z,9.73
2022-11-05T23:43:13.108Z,9.76
2022-11-05T23:45:47.877Z,9.75
2022-11-05T23:48:18.928Z,9.73
2022-11-05T23:50:56.278Z,9.70
2022-11-05T23:53:23.825Z,9.70
2022-11-05T23:55:51.204Z,9.72
2022-11-05T23:58:19.178Z,9.63
